Aérodrome :
LOGIN :

S'inscrire | Disclaimer

   EN    FR    IT 

 










Légende :    VFR   VFR Marginal   IFR   IFR Intensif   IFR Très Intensif
Visi : 
Plafond : 
>= 8 km
>= 3000ft
5 à 8 km
1000 à 3000 ft
1500m à 5 km
500 à 1000 ft
800 à 1500m
200 à 500 ft
< 800m
< 200 ft
Symboles :   Orages  Brouillard  Fortes neiges  Fortes précipitations  Vent > 20 kt
SIGMETs :   Divers  Orages  Givrage  Turbulence  Onde Orograph.  Cendres Volcan.






- Altitude de l'aérodrome : 33 ft
- Code IATA : MHZ


EGUN - RAF Mildenhall

DERNIER METAR :
  • 122030Z AUTO 23010KT 9999 BKN014 OVC023 08/08 A2876 RMK AO2 RAE29DZB29E30 BKN V OVC SLP742 $

METARs EXPIRÉS :
  • 122006Z AUTO 21010KT 9999 RA SCT008 BKN016 OVC025 07/07 A2877 RMK AO2 CIG 012V018 CIG 007 RWY29 SLP746 $
  • 121956Z 21009G18KT 9999 RA SCT008 BKN014 OVC027 08/08 A2878 RMK AO2A SLP749 P0010 T00750075 $
  • 121946Z 18013G18KT 9999 -RA SCT008 BKN013 BKN021 OVC027 08/08 A2878 RMK AO2A CIG 008V027 CIG 008 RWY29 SLP749 $
  • 121936Z 18015G24KT 9999 -RA SCT008 OVC029 08/08 A2878 RMK AO2A SLP749 $
  • 121856Z 16016G21KT 9999 -RA OVC035 07/07 A2880 RMK AO2A SLP756 P0006 T00740074 $
  • 121824Z 17012G20KT 9999 -RA SCT012 OVC031 08/08 A2883 RMK AO2A SLP766 $
  • 121756Z AUTO 17014G21KT 9999 -RA BKN012 BKN019 OVC024 08/08 A2885 RMK AO2 CIG 010 RWY29 SLP773 P0003 60005 T00770077 10077 20055 57044 $

TAF TAF EGUN
Valide du 12 à 20h jusqu'au 14 à 02h UTC


122000Z 1220/1402 18010G25KT 8000 -SHRA BKN010 610309 QNH2870INS
TEMPO 1220/1222 BKN008
BECMG 1221/1222 23010G20KT 8000 -SHRA BKN015 610409 QNH2864INS
BECMG 1305/1306 26015G25KT 9999 NSW BKN020 QNH2871INS TX08/1220Z TN05/1320Z



MET'MAP, la Météo Aéronautique d'un coup d'oeil ! - Copyright ORBIFLY Décembre 2007 - Disclaimer

ORBIFLY MET'MAP TEAM :

Programmation & Développement : Alexandra Zaïnal
Sur une idée originale de : Baudouin d'Aumeries
Assistance à la programmation : Marc-Olivier Méhu
Soutien technique & logistique : Manuel Goepfert

Contact : metmap@orbifly.com




SOURCES & CREDITS :

   NOAA